Time;durP1;ratioP1;P1;durP2;ratioP2;P2;SDS_P1;SDS_P2;PMS_P1;PMS_P2;Temp;Humidity;BMP_temperature;BMP_pressure;BME280_temperature;BME280_humidity;BME280_pressure;Samples;Min_cycle;Max_cycle;Signal;HPM_P1;HPM_P2
2022/03/22 00:00:29;;;;;;;42.00;20.23;;;3.50;1.00;;;;;;5053100;28;20193;-84
2022/03/22 00:02:57;;;;;;;37.57;19.60;;;3.40;1.00;;;;;;5052979;28;20685;-85
2022/03/22 00:05:25;;;;;;;43.97;22.20;;;3.30;1.00;;;;;;5052805;28;20590;-84
2022/03/22 00:07:52;;;;;;;42.40;21.13;;;3.20;1.00;;;;;;5052757;28;20193;-84
2022/03/22 00:10:20;;;;;;;48.73;21.80;;;3.20;1.00;;;;;;5052598;28;20595;-85
2022/03/22 00:12:49;;;;;;;44.80;22.37;;;3.10;1.00;;;;;;5052980;28;20196;-85
2022/03/22 00:15:16;;;;;;;42.10;21.30;;;3.00;1.00;;;;;;5052522;28;20199;-85
2022/03/22 00:17:43;;;;;;;45.87;22.20;;;2.90;1.00;;;;;;5052887;28;20275;-85
2022/03/22 00:20:13;;;;;;;40.80;20.30;;;2.90;1.00;;;;;;5052870;28;20246;-85
2022/03/22 00:22:41;;;;;;;40.27;20.60;;;2.80;1.00;;;;;;5052658;28;20224;-85
2022/03/22 00:25:09;;;;;;;43.90;20.90;;;2.70;1.00;;;;;;5052810;28;20195;-84
2022/03/22 00:30:34;;;;;;;40.73;20.80;;;2.60;1.00;;;;;;5090133;27;20565;-84
2022/03/22 00:33:03;;;;;;;43.43;20.17;;;2.50;1.00;;;;;;5090158;28;20202;-84
2022/03/22 00:35:36;;;;;;;40.40;20.27;;;2.50;1.00;;;;;;5089445;28;20624;-83
2022/03/22 00:38:04;;;;;;;41.10;20.43;;;2.40;1.00;;;;;;5089636;28;20587;-83
2022/03/22 00:40:31;;;;;;;41.33;20.60;;;2.50;1.00;;;;;;5089855;28;20195;-84
2022/03/22 00:42:59;;;;;;;44.97;20.83;;;2.50;1.00;;;;;;5089934;28;20264;-84
2022/03/22 00:45:27;;;;;;;40.33;19.77;;;2.50;1.00;;;;;;5090100;28;20191;-84
2022/03/22 00:47:56;;;;;;;38.07;19.40;;;2.60;1.00;;;;;;5089498;28;20659;-84
2022/03/22 00:50:26;;;;;;;47.23;20.83;;;2.70;1.00;;;;;;5089291;28;20222;-84
2022/03/22 00:52:53;;;;;;;46.67;22.47;;;2.80;1.00;;;;;;5089234;28;20290;-83
2022/03/22 00:55:23;;;;;;;58.43;22.40;;;2.90;1.00;;;;;;5088974;28;20648;-83
2022/03/22 00:57:51;;;;;;;48.07;21.97;;;3.00;1.00;;;;;;5089329;28;20198;-83
2022/03/22 01:00:19;;;;;;;49.80;23.10;;;3.10;1.00;;;;;;5089194;28;20241;-84
2022/03/22 01:02:49;;;;;;;44.90;22.67;;;3.30;1.00;;;;;;5089140;28;20187;-84
2022/03/22 01:05:19;;;;;;;47.00;23.10;;;3.40;1.00;;;;;;5089756;28;20245;-84
2022/03/22 01:07:48;;;;;;;44.17;23.53;;;3.50;1.00;;;;;;5089184;28;20592;-84
2022/03/22 01:10:16;;;;;;;47.10;23.33;;;3.50;1.00;;;;;;5088982;28;20216;-84
2022/03/22 01:12:45;;;;;;;41.80;21.63;;;3.60;1.00;;;;;;5088916;28;20195;-84
2022/03/22 01:15:15;;;;;;;43.03;20.07;;;3.60;1.00;;;;;;5088931;28;20552;-84
2022/03/22 01:17:42;;;;;;;47.17;22.13;;;3.70;1.00;;;;;;5089207;28;20195;-83
2022/03/22 01:20:10;;;;;;;45.40;21.97;;;3.70;1.00;;;;;;5089215;28;20605;-84
2022/03/22 01:22:40;;;;;;;49.67;22.23;;;3.70;1.00;;;;;;5088786;28;20201;-84
2022/03/22 01:25:09;;;;;;;45.40;22.30;;;3.70;1.00;;;;;;5088506;28;20191;-83
2022/03/22 01:27:37;;;;;;;46.60;23.17;;;3.80;1.00;;;;;;5089093;28;20264;-84
2022/03/22 01:30:07;;;;;;;47.73;22.60;;;3.80;1.00;;;;;;5088888;28;20223;-83
2022/03/22 01:32:34;;;;;;;47.80;22.77;;;3.80;1.00;;;;;;5088910;28;20562;-84
2022/03/22 01:35:01;;;;;;;42.50;21.70;;;3.80;1.00;;;;;;5088795;28;20192;-84
2022/03/22 01:37:29;;;;;;;40.40;20.43;;;3.80;1.00;;;;;;5088788;28;20196;-83
2022/03/22 01:39:57;;;;;;;51.23;24.20;;;3.80;1.00;;;;;;5086328;28;20196;-83
2022/03/22 01:42:24;;;;;;;60.60;25.20;;;3.80;1.00;;;;;;5074846;28;20706;-84
2022/03/22 01:44:52;;;;;;;56.00;26.00;;;3.70;1.00;;;;;;5075267;28;20201;-83
2022/03/22 01:47:23;;;;;;;49.70;25.10;;;3.70;1.00;;;;;;5075222;28;20249;-84
2022/03/22 01:49:50;;;;;;;51.87;25.03;;;3.60;1.00;;;;;;5074726;28;20212;-84
2022/03/22 01:52:19;;;;;;;45.07;23.73;;;3.60;1.00;;;;;;5074788;28;20280;-84
2022/03/22 01:54:47;;;;;;;47.93;22.93;;;3.50;1.00;;;;;;5075129;28;20275;-84
2022/03/22 01:57:17;;;;;;;48.97;23.47;;;3.50;1.00;;;;;;5074977;28;20192;-83
2022/03/22 01:59:44;;;;;;;46.83;23.70;;;3.40;1.00;;;;;;5074112;28;20595;-83
2022/03/22 02:07:44;;;;;;;46.50;23.80;;;3.40;1.00;;;;;;5074598;28;20632;-84
2022/03/22 02:10:11;;;;;;;45.83;24.17;;;3.30;1.00;;;;;;5074405;28;20621;-84
2022/03/22 02:12:40;;;;;;;45.80;23.40;;;3.30;1.00;;;;;;5074689;28;20199;-83
2022/03/22 02:15:08;;;;;;;46.53;22.20;;;3.30;1.00;;;;;;5074542;28;20299;-84
2022/03/22 02:17:35;;;;;;;45.00;23.00;;;3.30;1.00;;;;;;5074567;28;20525;-84
2022/03/22 02:20:03;;;;;;;42.60;22.13;;;3.10;1.00;;;;;;5074423;28;20196;-83
2022/03/22 02:22:34;;;;;;;45.63;23.47;;;3.00;1.00;;;;;;5074179;28;20652;-84
2022/03/22 02:25:04;;;;;;;44.93;21.87;;;2.70;1.00;;;;;;5074617;28;20188;-83
2022/03/22 02:27:34;;;;;;;45.77;22.30;;;2.50;1.00;;;;;;5074743;28;20253;-83
2022/03/22 02:30:01;;;;;;;44.07;23.13;;;2.30;1.00;;;;;;5074049;28;20219;-84
2022/03/22 02:32:28;;;;;;;44.60;22.63;;;2.20;1.00;;;;;;5074104;28;20686;-84
2022/03/22 02:34:55;;;;;;;43.57;23.73;;;1.90;1.00;;;;;;5074293;28;20329;-83
2022/03/22 02:37:22;;;;;;;41.97;22.57;;;1.70;1.00;;;;;;5073889;28;20333;-84
2022/03/22 02:39:49;;;;;;;48.63;22.73;;;1.60;1.00;;;;;;5074273;28;20203;-84
2022/03/22 02:42:18;;;;;;;57.73;28.57;;;1.40;1.00;;;;;;5073818;28;20187;-83
2022/03/22 02:44:45;;;;;;;47.73;24.00;;;1.30;1.00;;;;;;5073805;28;20200;-83
2022/03/22 02:47:12;;;;;;;48.17;23.77;;;1.20;1.00;;;;;;5073998;28;20287;-83
2022/03/22 02:49:39;;;;;;;49.10;23.70;;;1.10;1.00;;;;;;5073931;28;20216;-83
2022/03/22 02:52:07;;;;;;;53.43;23.90;;;1.00;1.00;;;;;;5072725;28;20299;-83
2022/03/22 02:54:34;;;;;;;51.53;23.70;;;0.80;1.00;;;;;;5074281;28;20260;-83
2022/03/22 02:57:01;;;;;;;47.50;24.33;;;0.70;1.00;;;;;;5073594;28;20196;-84
2022/03/22 02:59:29;;;;;;;47.43;23.60;;;0.60;1.00;;;;;;5073599;28;20198;-84
2022/03/22 03:01:57;;;;;;;52.93;24.13;;;0.50;1.00;;;;;;5073521;28;20206;-83
2022/03/22 03:04:24;;;;;;;54.53;23.57;;;0.50;1.00;;;;;;5073738;28;20196;-83
2022/03/22 03:06:51;;;;;;;47.67;24.37;;;0.40;1.00;;;;;;5073656;28;20238;-83
2022/03/22 03:09:18;;;;;;;52.37;24.30;;;0.30;1.00;;;;;;5073532;28;20311;-83
2022/03/22 03:11:45;;;;;;;49.20;23.47;;;0.30;1.00;;;;;;5073562;28;20269;-83
2022/03/22 03:16:58;;;;;;;51.63;24.60;;;0.10;1.00;;;;;;5073299;28;20235;-83
2022/03/22 03:19:25;;;;;;;48.90;23.13;;;0.10;1.00;;;;;;5073045;28;20235;-83
2022/03/22 03:21:52;;;;;;;47.17;24.37;;;0.10;1.00;;;;;;5072769;28;20250;-83
2022/03/22 03:24:20;;;;;;;47.53;24.00;;;0.10;1.00;;;;;;5073375;28;20233;-83
2022/03/22 03:26:47;;;;;;;48.67;24.10;;;0.10;1.00;;;;;;5072940;28;20184;-83
2022/03/22 03:29:14;;;;;;;48.90;24.43;;;0.00;1.00;;;;;;5072833;28;20216;-83
2022/03/22 03:31:41;;;;;;;47.70;24.83;;;-0.10;1.00;;;;;;5073275;28;20196;-83
2022/03/22 03:34:09;;;;;;;46.83;23.20;;;-0.20;1.00;;;;;;5073032;28;20241;-84
2022/03/22 03:36:36;;;;;;;50.43;24.90;;;-0.30;1.00;;;;;;5073002;28;20191;-84
2022/03/22 03:39:04;;;;;;;52.03;24.63;;;-0.40;1.00;;;;;;5072646;28;20238;-83
2022/03/22 03:47:07;;;;;;;44.37;20.73;;;-0.60;1.00;;;;;;5072746;28;20233;-84
2022/03/22 03:49:37;;;;;;;45.87;22.47;;;-0.80;1.00;;;;;;5072778;28;20203;-83
2022/03/22 03:52:06;;;;;;;54.20;23.87;;;-0.90;1.00;;;;;;5072276;28;20717;-83
2022/03/22 03:54:33;;;;;;;49.23;24.53;;;-1.00;1.00;;;;;;5072473;28;20278;-83
2022/03/22 03:57:00;;;;;;;49.00;23.17;;;-0.90;1.00;;;;;;5072817;28;20660;-83
2022/03/22 03:59:27;;;;;;;51.33;24.07;;;-0.90;1.00;;;;;;5072189;28;20826;-84
2022/03/22 04:01:55;;;;;;;47.20;22.63;;;-0.90;1.00;;;;;;5072824;28;20187;-84
2022/03/22 04:04:22;;;;;;;53.33;23.80;;;-0.80;1.00;;;;;;5072188;28;20242;-84
2022/03/22 04:06:50;;;;;;;56.50;23.90;;;-0.80;1.00;;;;;;5072774;28;20184;-83
2022/03/22 04:09:17;;;;;;;49.10;22.17;;;-0.70;1.00;;;;;;5072056;28;20195;-83
2022/03/22 04:11:45;;;;;;;44.97;20.97;;;-0.80;1.00;;;;;;5072325;28;20200;-84
2022/03/22 04:14:14;;;;;;;50.03;22.90;;;-0.80;1.00;;;;;;5072330;28;20200;-84
2022/03/22 04:16:42;;;;;;;51.33;22.90;;;-0.90;1.00;;;;;;5072432;28;20192;-83
2022/03/22 04:19:09;;;;;;;48.53;22.57;;;-0.90;1.00;;;;;;5072812;28;20199;-84
2022/03/22 04:21:38;;;;;;;46.20;23.00;;;-0.90;1.00;;;;;;5071672;28;20184;-84
2022/03/22 04:24:08;;;;;;;51.77;25.13;;;-0.90;1.00;;;;;;5072568;28;20548;-84
2022/03/22 04:26:35;;;;;;;49.43;25.03;;;-1.00;1.00;;;;;;5072502;28;20180;-84
2022/03/22 04:34:32;;;;;;;48.10;22.33;;;-1.00;1.00;;;;;;5072298;28;20203;-84
2022/03/22 04:36:59;;;;;;;47.30;21.57;;;-1.00;1.00;;;;;;5072066;28;20192;-83
2022/03/22 04:39:30;;;;;;;57.40;25.77;;;-1.00;1.00;;;;;;5072016;28;20187;-84
2022/03/22 04:41:58;;;;;;;55.90;26.47;;;-1.00;1.00;;;;;;5072228;28;20537;-84
2022/03/22 04:44:38;;;;;;;53.93;24.57;;;-1.00;1.00;;;;;;5089959;28;20176;-88
2022/03/22 04:47:05;;;;;;;47.53;23.97;;;-1.00;1.00;;;;;;5086795;28;20223;-85
2022/03/22 04:49:34;;;;;;;53.10;24.37;;;-1.00;1.00;;;;;;5071169;28;20192;-84
2022/03/22 04:57:32;;;;;;;46.77;23.10;;;-1.00;1.00;;;;;;5072032;28;20301;-84
2022/03/22 05:00:01;;;;;;;45.17;24.23;;;-1.00;1.00;;;;;;5075902;28;20321;-89
2022/03/22 05:02:28;;;;;;;47.03;22.90;;;-1.10;1.00;;;;;;5078232;28;20175;-84
2022/03/22 05:04:55;;;;;;;45.83;23.60;;;-1.10;1.00;;;;;;5077917;28;20200;-85
2022/03/22 05:07:22;;;;;;;47.60;23.33;;;-1.20;1.00;;;;;;5073098;28;20199;-84
2022/03/22 05:09:50;;;;;;;48.87;23.63;;;-1.30;1.00;;;;;;5075317;28;20219;-84
2022/03/22 05:12:18;;;;;;;47.47;23.07;;;-1.30;1.00;;;;;;5076863;28;20257;-87
2022/03/22 05:14:50;;;;;;;48.87;24.23;;;-1.40;1.00;;;;;;5075192;28;20623;-86
2022/03/22 05:17:21;;;;;;;50.47;24.80;;;-1.40;1.00;;;;;;5080306;28;20226;-85
2022/03/22 05:19:50;;;;;;;49.93;23.00;;;-1.40;1.00;;;;;;5079749;28;20188;-86
2022/03/22 05:22:17;;;;;;;51.57;24.20;;;-1.40;1.00;;;;;;5077974;28;20274;-85
2022/03/22 05:24:44;;;;;;;50.97;24.60;;;-1.50;1.00;;;;;;5076935;28;20261;-86
2022/03/22 05:27:14;;;;;;;40.90;19.93;;;-1.50;1.00;;;;;;5078042;28;20242;-85
2022/03/22 05:29:41;;;;;;;50.67;23.73;;;-1.50;1.00;;;;;;5080808;28;20310;-85
2022/03/22 05:32:11;;;;;;;50.10;23.23;;;-1.50;1.00;;;;;;5077731;28;20195;-87
2022/03/22 05:34:38;;;;;;;42.93;21.97;;;-1.50;1.00;;;;;;5079565;28;20207;-86
2022/03/22 05:37:06;;;;;;;44.23;23.17;;;-1.40;1.00;;;;;;5082210;28;20196;-86
2022/03/22 05:39:35;;;;;;;47.77;22.67;;;-1.40;1.00;;;;;;5082303;28;20661;-87
2022/03/22 05:42:04;;;;;;;48.87;24.33;;;-1.30;1.00;;;;;;5082224;28;20291;-86
2022/03/22 05:44:35;;;;;;;46.30;24.20;;;-1.20;1.00;;;;;;5084702;28;20238;-90
2022/03/22 05:47:03;;;;;;;52.30;24.30;;;-1.10;1.00;;;;;;5087188;28;20216;-90
2022/03/22 05:49:30;;;;;;;46.87;24.00;;;-0.90;1.00;;;;;;5081841;28;20195;-85
2022/03/22 05:52:01;;;;;;;45.77;22.43;;;-0.30;1.00;;;;;;5081392;28;20269;-89
2022/03/22 05:54:29;;;;;;;44.03;21.47;;;0.90;64.20;;;;;;5083367;28;20188;-85
2022/03/22 05:56:56;;;;;;;47.27;22.23;;;2.30;99.90;;;;;;5080279;28;20193;-85
2022/03/22 05:59:32;;;;;;;40.47;21.17;;;3.60;99.90;;;;;;5077219;28;20622;-85
2022/03/22 06:02:01;;;;;;;41.93;22.57;;;4.80;32.00;;;;;;5082503;28;20204;-86
2022/03/22 06:04:28;;;;;;;42.43;22.47;;;6.00;1.00;;;;;;5083391;28;20218;-86
2022/03/22 06:06:55;;;;;;;42.00;23.53;;;7.00;1.00;;;;;;5078034;28;20250;-85
2022/03/22 06:09:22;;;;;;;42.07;23.57;;;8.20;1.00;;;;;;5079856;28;20223;-85
2022/03/22 06:11:49;;;;;;;41.40;23.73;;;9.50;1.00;;;;;;5080228;28;20271;-89
2022/03/22 06:14:16;;;;;;;41.03;23.17;;;10.60;1.00;;;;;;5076328;28;20249;-87
2022/03/22 06:16:44;;;;;;;42.10;23.70;;;11.50;1.00;;;;;;5075972;28;20204;-85
2022/03/22 06:19:13;;;;;;;36.50;23.37;;;12.50;1.00;;;;;;5076439;28;20198;-85
2022/03/22 06:21:45;;;;;;;42.35;24.67;;;13.40;1.00;;;;;;5090983;28;20213;-87
2022/03/22 06:24:12;;;;;;;40.60;24.60;;;14.10;1.00;;;;;;5087669;28;20188;-87
2022/03/22 06:26:42;;;;;;;42.33;24.50;;;14.90;1.00;;;;;;5082984;28;20176;-89
2022/03/22 06:29:09;;;;;;;42.72;24.58;;;15.50;1.00;;;;;;5083894;28;20236;-85
2022/03/22 06:31:37;;;;;;;37.13;24.23;;;16.20;1.00;;;;;;5086581;28;20226;-85
2022/03/22 06:34:04;;;;;;;40.95;24.98;;;17.00;1.00;;;;;;5076525;28;20220;-83
2022/03/22 06:36:37;;;;;;;38.53;25.65;;;17.60;1.00;;;;;;5078155;28;20652;-88
2022/03/22 06:39:05;;;;;;;44.58;26.30;;;18.30;1.00;;;;;;5088331;28;20188;-84
2022/03/22 06:41:32;;;;;;;45.00;27.70;;;18.90;1.00;;;;;;5075466;28;20188;-83
2022/03/22 06:44:02;;;;;;;46.38;29.50;;;19.50;1.00;;;;;;5089571;28;20196;-87
2022/03/22 06:46:29;;;;;;;48.10;31.02;;;20.00;1.00;;;;;;5080310;28;20238;-84
2022/03/22 06:48:56;;;;;;;47.58;29.45;;;20.30;1.00;;;;;;5081635;28;20206;-86
2022/03/22 06:51:25;;;;;;;50.92;29.77;;;20.70;1.00;;;;;;5067873;28;20268;-89
2022/03/22 06:53:53;;;;;;;52.17;30.23;;;21.10;1.00;;;;;;5081840;28;20193;-84
2022/03/22 06:56:20;;;;;;;51.03;27.75;;;21.60;1.00;;;;;;5075642;28;20653;-84
2022/03/22 06:58:50;;;;;;;45.25;26.67;;;22.20;1.00;;;;;;5075984;28;20203;-84
2022/03/22 07:01:17;;;;;;;43.55;27.10;;;23.00;1.00;;;;;;5080456;28;20197;-83
2022/03/22 07:03:44;;;;;;;44.80;27.02;;;23.60;1.00;;;;;;5060420;28;20205;-84
2022/03/22 07:06:12;;;;;;;50.08;27.30;;;24.10;1.00;;;;;;5067475;28;20243;-89
2022/03/22 07:08:39;;;;;;;41.15;26.48;;;24.60;1.00;;;;;;5071521;28;20193;-87
2022/03/22 07:14:03;;;;;;;37.15;26.13;;;;;;;;;;5094688;28;20230;-89
2022/03/22 07:16:30;;;;;;;37.37;26.13;;;26.00;1.00;;;;;;5079913;28;20690;-83
2022/03/22 07:18:58;;;;;;;44.20;26.70;;;26.40;1.00;;;;;;5080810;28;20219;-87
2022/03/22 07:21:26;;;;;;;45.53;26.75;;;26.70;1.00;;;;;;5094733;28;20239;-87
2022/03/22 07:23:59;;;;;;;42.67;27.17;;;26.90;1.00;;;;;;5080657;28;20182;-88
2022/03/22 07:26:27;;;;;;;40.85;27.95;;;26.90;1.00;;;;;;5075873;28;20234;-83
2022/03/22 07:28:54;;;;;;;41.78;28.27;;;26.60;1.00;;;;;;5076341;28;20220;-83
2022/03/22 07:31:21;;;;;;;44.85;30.67;;;26.40;1.00;;;;;;5079351;28;20234;-85
2022/03/22 07:33:51;;;;;;;45.10;29.67;;;26.10;1.00;;;;;;5081803;28;20192;-87
2022/03/22 07:36:18;;;;;;;87.00;31.30;;;25.80;1.00;;;;;;5076439;28;20602;-83
2022/03/22 07:38:46;;;;;;;43.58;29.50;;;25.90;1.00;;;;;;5081280;28;20196;-83
2022/03/22 07:41:13;;;;;;;41.30;29.33;;;25.90;1.00;;;;;;5078165;28;20231;-82
2022/03/22 07:43:42;;;;;;;46.67;29.33;;;26.10;1.00;;;;;;5075147;28;20279;-83
2022/03/22 07:46:09;;;;;;;46.58;29.33;;;26.20;1.00;;;;;;5078859;28;20275;-87
2022/03/22 07:48:36;;;;;;;43.72;28.73;;;26.40;1.00;;;;;;5075946;28;20645;-83
2022/03/22 07:53:47;;;;;;;42.45;28.85;;;26.30;1.00;;;;;;5078902;28;20179;-83
2022/03/22 07:56:15;;;;;;;47.20;30.48;;;26.00;1.00;;;;;;5075901;28;20196;-84
2022/03/22 07:58:44;;;;;;;47.78;29.52;;;26.00;1.00;;;;;;5080394;28;20196;-85
2022/03/22 08:01:11;;;;;;;46.08;29.60;;;25.90;1.00;;;;;;5073342;28;20208;-83
2022/03/22 08:03:38;;;;;;;47.08;29.85;;;25.90;1.00;;;;;;5071682;28;20535;-83
2022/03/22 08:06:07;;;;;;;40.45;28.48;;;25.90;1.00;;;;;;5074406;28;20192;-83
2022/03/22 08:08:43;;;;;;;42.60;29.10;;;26.00;1.00;;;;;;5073366;28;20180;-85
2022/03/22 08:11:10;;;;;;;41.03;28.27;;;26.00;1.00;;;;;;5073851;28;20713;-84
2022/03/22 08:13:38;;;;;;;36.47;27.17;;;26.10;1.00;;;;;;5071722;28;20188;-84
2022/03/22 08:16:16;;;;;;;37.38;27.95;;;26.10;1.00;;;;;;5076569;28;20188;-85
2022/03/22 08:18:43;;;;;;;43.30;30.83;;;25.80;1.00;;;;;;5075557;28;20181;-82
2022/03/22 08:21:10;;;;;;;43.00;29.75;;;25.30;1.00;;;;;;5071918;28;20208;-84
2022/03/22 08:23:37;;;;;;;36.75;27.10;;;25.30;1.00;;;;;;5074956;28;20242;-83
2022/03/22 08:26:04;;;;;;;39.88;27.15;;;25.40;1.00;;;;;;5070025;28;20653;-84
2022/03/22 08:28:32;;;;;;;37.58;26.52;;;25.60;1.00;;;;;;5072655;28;20280;-84
2022/03/22 08:31:02;;;;;;;37.05;25.17;;;26.10;1.00;;;;;;5074517;28;20227;-88
2022/03/22 08:33:30;;;;;;;35.15;23.83;;;26.50;1.00;;;;;;5071066;28;20196;-83
2022/03/22 08:35:57;;;;;;;35.35;25.92;;;26.80;1.00;;;;;;5071953;28;20238;-84
2022/03/22 08:38:25;;;;;;;46.13;26.17;;;26.90;1.00;;;;;;5071536;28;20192;-83
2022/03/22 08:40:53;;;;;;;40.50;24.67;;;27.00;1.00;;;;;;5075977;28;20303;-83
2022/03/22 08:43:25;;;;;;;35.45;24.88;;;27.20;1.00;;;;;;5075360;28;20249;-84
2022/03/22 08:45:52;;;;;;;34.70;25.55;;;27.20;1.00;;;;;;5075902;28;20202;-84
2022/03/22 08:48:20;;;;;;;36.15;25.92;;;27.30;1.00;;;;;;5076339;28;20262;-83
2022/03/22 08:50:58;;;;;;;31.92;24.95;;;27.60;1.00;;;;;;5077186;28;20699;-86
2022/03/22 08:53:26;;;;;;;33.08;24.58;;;27.70;1.00;;;;;;5084794;28;20188;-84
2022/03/22 08:55:53;;;;;;;45.25;24.90;;;27.80;1.00;;;;;;5081813;28;20789;-84
2022/03/22 08:58:26;;;;;;;52.42;25.70;;;27.70;1.00;;;;;;5082602;28;20704;-88
2022/03/22 09:01:00;;;;;;;58.10;28.83;;;27.80;1.00;;;;;;5080688;28;20184;-83
2022/03/22 09:03:28;;;;;;;42.35;23.75;;;28.10;1.00;;;;;;5079565;28;20196;-84
2022/03/22 09:06:07;;;;;;;36.92;24.15;;;28.10;1.00;;;;;;5080141;28;20704;-84
2022/03/22 09:08:40;;;;;;;26.65;19.30;;;28.30;1.00;;;;;;5077538;28;20589;-88
2022/03/22 09:11:12;;;;;;;33.47;24.48;;;28.50;1.00;;;;;;5080706;28;20637;-86
2022/03/22 09:13:40;;;;;;;25.95;19.88;;;28.80;1.00;;;;;;5078131;28;20275;-84
2022/03/22 09:16:12;;;;;;;30.70;21.92;;;28.80;1.00;;;;;;5084192;28;20184;-87
2022/03/22 09:18:39;;;;;;;29.92;22.02;;;28.70;1.00;;;;;;5076765;28;20180;-85
2022/03/22 09:21:10;;;;;;;25.92;19.65;;;28.60;1.00;;;;;;5077027;28;20216;-83
2022/03/22 09:23:41;;;;;;;28.63;20.63;;;28.50;1.00;;;;;;5078764;28;20189;-84
2022/03/22 09:26:08;;;;;;;25.80;19.15;;;28.30;1.00;;;;;;5078090;28;20635;-83
2022/03/22 09:28:35;;;;;;;22.55;17.75;;;28.20;1.00;;;;;;5077947;28;20231;-82
2022/03/22 09:31:02;;;;;;;24.77;16.58;;;28.20;1.00;;;;;;5077170;28;20234;-84
2022/03/22 09:33:30;;;;;;;21.83;17.55;;;28.20;1.00;;;;;;5074836;28;20227;-84
2022/03/22 09:36:03;;;;;;;17.98;13.35;;;28.30;1.00;;;;;;5080002;28;20279;-88
2022/03/22 09:38:31;;;;;;;23.88;18.63;;;28.20;1.00;;;;;;5080561;28;20193;-84
2022/03/22 09:41:00;;;;;;;26.65;18.40;;;28.00;1.00;;;;;;5077069;28;20241;-83
2022/03/22 09:43:30;;;;;;;26.67;15.50;;;28.00;1.00;;;;;;5076744;28;20206;-84
2022/03/22 09:46:07;;;;;;;24.17;14.85;;;27.70;1.00;;;;;;5086198;28;20173;-86
2022/03/22 09:48:35;;;;;;;22.90;16.05;;;27.40;1.00;;;;;;5078740;28;20176;-83
2022/03/22 09:53:52;;;;;;;25.15;17.38;;;26.60;1.00;;;;;;5080839;28;20199;-82
2022/03/22 09:56:20;;;;;;;21.13;16.10;;;26.00;1.00;;;;;;5081809;28;20188;-84
2022/03/22 09:58:48;;;;;;;25.13;17.55;;;25.30;1.00;;;;;;5081771;28;20290;-84
2022/03/22 10:01:15;;;;;;;23.52;16.45;;;24.40;1.00;;;;;;5081608;28;20259;-83
2022/03/22 10:03:42;;;;;;;24.27;17.83;;;24.00;1.00;;;;;;5079576;28;20250;-82
2022/03/22 10:06:09;;;;;;;19.25;14.48;;;23.50;1.00;;;;;;5081229;28;20203;-84
2022/03/22 10:08:51;;;;;;;19.90;13.88;;;23.10;1.00;;;;;;5079294;28;20188;-85
2022/03/22 10:11:35;;;;;;;19.17;13.20;;;22.70;1.00;;;;;;5083067;28;20241;-85
2022/03/22 10:14:03;;;;;;;22.23;14.23;;;22.30;1.00;;;;;;5079294;28;20544;-85
2022/03/22 10:16:30;;;;;;;26.75;18.35;;;21.90;1.00;;;;;;5072814;28;20192;-82
2022/03/22 10:18:57;;;;;;;17.92;12.63;;;21.70;1.00;;;;;;5084771;28;20215;-83
2022/03/22 10:21:30;;;;;;;50.65;30.52;;;21.60;1.00;;;;;;5078374;28;20706;-86
2022/03/22 10:23:58;;;;;;;21.15;15.02;;;21.20;1.00;;;;;;5074590;28;20270;-82
2022/03/22 10:26:33;;;;;;;24.50;14.52;;;21.00;1.00;;;;;;5084866;28;20188;-83
2022/03/22 10:29:05;;;;;;;20.30;13.65;;;20.60;1.00;;;;;;5077823;28;20219;-87
2022/03/22 10:31:34;;;;;;;23.52;15.88;;;20.20;1.00;;;;;;5081203;28;20227;-83
2022/03/22 10:34:02;;;;;;;28.27;17.85;;;20.00;1.00;;;;;;5076467;28;20716;-82
2022/03/22 10:36:33;;;;;;;29.27;16.98;;;19.80;1.00;;;;;;5077304;28;20196;-84
2022/03/22 10:39:06;;;;;;;32.58;19.35;;;19.90;1.00;;;;;;5075817;28;20192;-84
2022/03/22 10:41:38;;;;;;;31.30;17.20;;;19.70;1.00;;;;;;5075264;28;20617;-84
2022/03/22 10:44:06;;;;;;;31.83;19.10;;;19.60;1.00;;;;;;5075001;28;20176;-85
2022/03/22 10:46:38;;;;;;;30.15;18.35;;;19.60;1.00;;;;;;5079861;28;20245;-87
2022/03/22 10:49:08;;;;;;;29.63;20.35;;;19.40;1.00;;;;;;5077023;28;20555;-83
2022/03/22 10:51:44;;;;;;;31.02;19.23;;;19.30;1.00;;;;;;5076288;28;20230;-82
2022/03/22 10:54:15;;;;;;;30.15;17.38;;;19.20;1.00;;;;;;5077060;28;20186;-83
2022/03/22 10:56:47;;;;;;;33.95;20.00;;;19.20;1.00;;;;;;5074592;28;20223;-84
2022/03/22 10:59:15;;;;;;;28.45;18.73;;;19.10;1.00;;;;;;5073679;28;20164;-83
2022/03/22 11:01:44;;;;;;;28.65;19.73;;;19.10;1.00;;;;;;5077687;28;20623;-82
2022/03/22 11:04:15;;;;;;;28.10;18.40;;;19.00;1.00;;;;;;5072006;28;20280;-86
2022/03/22 11:06:43;;;;;;;73.43;53.88;;;19.00;1.00;;;;;;5079550;28;20197;-83
2022/03/22 11:09:13;;;;;;;27.70;19.25;;;19.10;1.00;;;;;;5080082;28;20193;-82
2022/03/22 11:11:40;;;;;;;24.75;16.45;;;19.10;1.00;;;;;;5075580;28;20234;-82
2022/03/22 11:14:10;;;;;;;30.20;20.33;;;19.10;1.00;;;;;;5078930;28;20196;-81
2022/03/22 11:16:40;;;;;;;27.52;16.92;;;19.10;1.00;;;;;;5084631;28;20215;-85
2022/03/22 11:19:07;;;;;;;24.73;16.40;;;19.00;1.00;;;;;;5076943;28;20641;-83
2022/03/22 11:21:34;;;;;;;24.75;15.73;;;18.90;1.00;;;;;;5076849;28;20718;-83
2022/03/22 11:24:07;;;;;;;24.27;17.05;;;18.90;1.00;;;;;;5083745;28;20200;-83
2022/03/22 11:26:50;;;;;;;22.17;14.27;;;19.00;1.00;;;;;;5080207;28;20181;-82
2022/03/22 11:29:18;;;;;;;16.52;12.05;;;19.00;1.00;;;;;;5082489;28;20232;-82
2022/03/22 11:34:08;;;;;;;19.55;12.43;;;19.00;1.00;;;;;;5073929;28;20634;-82
2022/03/22 11:34:32;;;;;;;22.27;13.50;;;19.00;1.00;;;;;;5077861;28;20182;-82
2022/03/22 11:37:02;;;;;;;21.05;13.52;;;19.10;1.00;;;;;;5077980;28;20193;-85
2022/03/22 11:42:19;;;;;;;20.95;14.23;;;19.10;1.00;;;;;;5076128;28;20330;-85
2022/03/22 11:44:56;;;;;;;22.13;14.18;;;19.00;1.00;;;;;;5075243;28;20537;-82
2022/03/22 11:47:23;;;;;;;25.40;13.88;;;19.10;1.00;;;;;;5074468;28;20212;-83
2022/03/22 11:49:55;;;;;;;26.27;15.57;;;19.10;1.00;;;;;;5076707;28;20188;-82
2022/03/22 11:52:24;;;;;;;23.50;15.55;;;19.10;1.00;;;;;;5073572;28;20616;-83
2022/03/22 11:54:56;;;;;;;24.02;14.80;;;19.10;1.00;;;;;;5075846;28;20193;-84
2022/03/22 11:57:25;;;;;;;22.90;14.70;;;19.10;1.00;;;;;;5075596;28;20257;-83
2022/03/22 11:59:53;;;;;;;19.77;14.27;;;19.10;1.00;;;;;;5075713;28;20214;-82
2022/03/22 12:02:22;;;;;;;21.17;14.80;;;19.10;1.00;;;;;;5072588;28;20253;-81
2022/03/22 12:04:54;;;;;;;19.98;14.02;;;19.10;1.00;;;;;;5075039;28;20185;-85
2022/03/22 12:07:24;;;;;;;27.88;13.93;;;19.10;1.00;;;;;;5076066;28;20211;-83
2022/03/22 12:09:52;;;;;;;21.80;14.00;;;19.20;1.00;;;;;;5078176;28;20644;-84
2022/03/22 12:12:19;;;;;;;17.85;12.73;;;19.20;1.00;;;;;;5079852;28;20246;-81
2022/03/22 12:14:48;;;;;;;22.80;14.02;;;19.20;1.00;;;;;;5081078;28;20204;-84
2022/03/22 12:17:17;;;;;;;20.00;13.30;;;19.10;1.00;;;;;;5072149;28;20192;-81
2022/03/22 12:19:47;;;;;;;22.05;13.45;;;19.20;1.00;;;;;;5079161;28;20727;-85
2022/03/22 12:22:14;;;;;;;22.27;12.68;;;19.20;1.00;;;;;;5084703;28;20278;-82
2022/03/22 12:24:41;;;;;;;22.33;13.43;;;19.10;1.00;;;;;;5078316;28;20246;-83
2022/03/22 12:27:13;;;;;;;19.90;14.05;;;19.10;1.00;;;;;;5080883;28;20188;-83
2022/03/22 12:29:42;;;;;;;24.80;14.40;;;18.90;1.00;;;;;;5082861;28;20269;-83
2022/03/22 12:32:15;;;;;;;19.10;13.20;;;18.90;1.00;;;;;;5078687;28;20204;-86
2022/03/22 12:34:47;;;;;;;15.75;11.40;;;18.90;1.00;;;;;;5075710;28;20188;-84
2022/03/22 12:37:15;;;;;;;19.52;11.50;;;18.90;1.00;;;;;;5075756;28;20678;-83
2022/03/22 12:39:44;;;;;;;20.20;13.20;;;18.90;1.00;;;;;;5077287;28;20200;-86
2022/03/22 12:42:13;;;;;;;17.13;11.90;;;18.80;1.00;;;;;;5073142;28;20578;-83
2022/03/22 12:44:40;;;;;;;16.13;11.50;;;18.80;1.00;;;;;;5075209;28;20189;-83
2022/03/22 12:47:09;;;;;;;27.65;11.70;;;18.80;1.00;;;;;;5076063;28;20649;-82
2022/03/22 12:49:40;;;;;;;20.98;11.13;;;18.80;1.00;;;;;;5075302;28;20595;-84
2022/03/22 12:52:11;;;;;;;18.50;11.40;;;18.80;1.00;;;;;;5073426;28;20204;-82
2022/03/22 12:54:41;;;;;;;16.75;10.80;;;18.70;1.00;;;;;;5076093;28;20545;-84
2022/03/22 12:57:10;;;;;;;15.27;10.68;;;18.70;1.00;;;;;;5075647;28;20184;-82
2022/03/22 12:59:38;;;;;;;21.05;11.45;;;18.70;1.00;;;;;;5074173;28;20189;-83
2022/03/22 13:02:07;;;;;;;16.88;10.70;;;18.70;1.00;;;;;;5074904;28;20726;-81
2022/03/22 13:04:38;;;;;;;14.38;10.68;;;18.70;1.00;;;;;;5073251;28;20283;-82
2022/03/22 13:07:08;;;;;;;15.73;10.05;;;18.70;1.00;;;;;;5076186;28;20184;-83
2022/03/22 13:12:24;;;;;;;25.95;10.63;;;18.70;1.00;;;;;;5076280;28;20188;-86
2022/03/22 13:15:04;;;;;;;14.45;10.25;;;18.60;1.00;;;;;;5077183;28;20192;-83
2022/03/22 13:17:34;;;;;;;15.40;10.65;;;18.60;1.00;;;;;;5077465;28;20168;-82
2022/03/22 13:20:07;;;;;;;16.15;9.95;;;18.60;1.00;;;;;;5075166;28;20189;-81
2022/03/22 13:22:49;;;;;;;15.45;9.93;;;18.60;1.00;;;;;;5081124;28;20205;-84
2022/03/22 13:25:19;;;;;;;15.70;10.55;;;18.60;1.00;;;;;;5079992;28;20186;-85
2022/03/22 13:28:00;;;;;;;15.43;10.35;;;18.70;1.00;;;;;;5081872;28;20177;-82
2022/03/22 13:30:33;;;;;;;16.33;10.20;;;18.70;1.00;;;;;;5084565;28;20289;-86